sensor_id;sensor_type;location;lat;lon;timestamp;P1;P2;P0
73305;PMS5003;61530;51.158;0.880;2023-05-17T00:00:13;10;10;7
73305;PMS5003;61530;51.158;0.880;2023-05-17T00:01:16;7;6;4
73305;PMS5003;61530;51.158;0.880;2023-05-17T00:02:22;9;8;5
73305;PMS5003;61530;51.158;0.880;2023-05-17T00:03:25;14;14;5
73305;PMS5003;61530;51.158;0.880;2023-05-17T00:04:29;10;10;5
73305;PMS5003;61530;51.158;0.880;2023-05-17T00:05:32;9;9;6
73305;PMS5003;61530;51.158;0.880;2023-05-17T00:06:38;9;8;5
73305;PMS5003;61530;51.158;0.880;2023-05-17T00:07:41;9;7;5
73305;PMS5003;61530;51.158;0.880;2023-05-17T00:08:45;13;9;5
73305;PMS5003;61530;51.158;0.880;2023-05-17T00:09:48;11;9;5
73305;PMS5003;61530;51.158;0.880;2023-05-17T00:10:54;9;8;5
73305;PMS5003;61530;51.158;0.880;2023-05-17T00:11:57;9;9;6
73305;PMS5003;61530;51.158;0.880;2023-05-17T00:13:01;8;8;5
73305;PMS5003;61530;51.158;0.880;2023-05-17T00:14:04;10;7;5
73305;PMS5003;61530;51.158;0.880;2023-05-17T00:15:10;14;9;5
73305;PMS5003;61530;51.158;0.880;2023-05-17T00:16:13;7;7;4
73305;PMS5003;61530;51.158;0.880;2023-05-17T00:17:17;14;10;6
73305;PMS5003;61530;51.158;0.880;2023-05-17T00:18:20;6;6;4
73305;PMS5003;61530;51.158;0.880;2023-05-17T00:19:26;8;6;4
73305;PMS5003;61530;51.158;0.880;2023-05-17T00:20:30;6;6;5
73305;PMS5003;61530;51.158;0.880;2023-05-17T00:21:33;9;8;5
73305;PMS5003;61530;51.158;0.880;2023-05-17T00:22:36;12;8;5
73305;PMS5003;61530;51.158;0.880;2023-05-17T00:23:42;7;7;5
73305;PMS5003;61530;51.158;0.880;2023-05-17T00:24:45;7;7;5
73305;PMS5003;61530;51.158;0.880;2023-05-17T00:25:49;8;8;6
73305;PMS5003;61530;51.158;0.880;2023-05-17T00:26:52;14;8;5
73305;PMS5003;61530;51.158;0.880;2023-05-17T00:27:58;13;12;6
73305;PMS5003;61530;51.158;0.880;2023-05-17T00:29:02;12;10;6
73305;PMS5003;61530;51.158;0.880;2023-05-17T00:30:05;10;8;5
73305;PMS5003;61530;51.158;0.880;2023-05-17T00:31:08;9;7;5
73305;PMS5003;61530;51.158;0.880;2023-05-17T00:32:14;9;9;5
73305;PMS5003;61530;51.158;0.880;2023-05-17T00:33:17;8;8;5
73305;PMS5003;61530;51.158;0.880;2023-05-17T00:34:21;8;8;5
73305;PMS5003;61530;51.158;0.880;2023-05-17T00:35:24;15;13;5
73305;PMS5003;61530;51.158;0.880;2023-05-17T00:36:30;8;8;5
73305;PMS5003;61530;51.158;0.880;2023-05-17T00:37:33;12;10;6
73305;PMS5003;61530;51.158;0.880;2023-05-17T00:38:37;9;9;5
73305;PMS5003;61530;51.158;0.880;2023-05-17T00:39:40;8;8;5
73305;PMS5003;61530;51.158;0.880;2023-05-17T00:40:46;10;10;5
73305;PMS5003;61530;51.158;0.880;2023-05-17T00:41:49;8;8;4
73305;PMS5003;61530;51.158;0.880;2023-05-17T00:42:53;7;7;5
73305;PMS5003;61530;51.158;0.880;2023-05-17T00:43:56;13;10;6
73305;PMS5003;61530;51.158;0.880;2023-05-17T00:45:02;8;7;5
73305;PMS5003;61530;51.158;0.880;2023-05-17T00:46:05;7;7;5
73305;PMS5003;61530;51.158;0.880;2023-05-17T00:47:09;14;10;6
73305;PMS5003;61530;51.158;0.880;2023-05-17T00:48:12;13;9;6
73305;PMS5003;61530;51.158;0.880;2023-05-17T00:49:18;9;9;5
73305;PMS5003;61530;51.158;0.880;2023-05-17T00:50:21;6;6;5
73305;PMS5003;61530;51.158;0.880;2023-05-17T00:51:25;9;8;5
73305;PMS5003;61530;51.158;0.880;2023-05-17T00:52:28;9;9;5
73305;PMS5003;61530;51.158;0.880;2023-05-17T00:53:34;9;8;6
73305;PMS5003;61530;51.158;0.880;2023-05-17T00:54:38;8;8;5
73305;PMS5003;61530;51.158;0.880;2023-05-17T00:55:41;8;7;6
73305;PMS5003;61530;51.158;0.880;2023-05-17T00:56:44;8;8;5
73305;PMS5003;61530;51.158;0.880;2023-05-17T00:57:50;10;9;5
73305;PMS5003;61530;51.158;0.880;2023-05-17T00:58:53;13;9;6
73305;PMS5003;61530;51.158;0.880;2023-05-17T00:59:57;9;9;5
73305;PMS5003;61530;51.158;0.880;2023-05-17T01:01:00;9;9;5
73305;PMS5003;61530;51.158;0.880;2023-05-17T01:02:06;13;12;4
73305;PMS5003;61530;51.158;0.880;2023-05-17T01:03:09;8;7;5
73305;PMS5003;61530;51.158;0.880;2023-05-17T01:04:13;11;11;6
73305;PMS5003;61530;51.158;0.880;2023-05-17T01:05:16;10;9;5
73305;PMS5003;61530;51.158;0.880;2023-05-17T01:06:22;9;9;5
73305;PMS5003;61530;51.158;0.880;2023-05-17T01:07:25;8;8;5
73305;PMS5003;61530;51.158;0.880;2023-05-17T01:08:29;8;8;5
73305;PMS5003;61530;51.158;0.880;2023-05-17T01:09:32;10;7;5
73305;PMS5003;61530;51.158;0.880;2023-05-17T01:10:40;10;9;5
73305;PMS5003;61530;51.158;0.880;2023-05-17T01:11:43;15;14;6
73305;PMS5003;61530;51.158;0.880;2023-05-17T01:12:49;11;11;6
73305;PMS5003;61530;51.158;0.880;2023-05-17T01:13:51;9;8;5
73305;PMS5003;61530;51.158;0.880;2023-05-17T01:14:56;12;9;6
73305;PMS5003;61530;51.158;0.880;2023-05-17T01:16:00;13;11;5
73305;PMS5003;61530;51.158;0.880;2023-05-17T01:17:03;13;9;6
73305;PMS5003;61530;51.158;0.880;2023-05-17T01:18:07;17;11;5
73305;PMS5003;61530;51.158;0.880;2023-05-17T01:19:11;9;8;5
73305;PMS5003;61530;51.158;0.880;2023-05-17T01:20:15;11;9;7
73305;PMS5003;61530;51.158;0.880;2023-05-17T01:21:25;8;8;5
73305;PMS5003;61530;51.158;0.880;2023-05-17T01:22:26;11;9;6
73305;PMS5003;61530;51.158;0.880;2023-05-17T01:23:29;13;13;5
73305;PMS5003;61530;51.158;0.880;2023-05-17T01:24:32;7;6;5
73305;PMS5003;61530;51.158;0.880;2023-05-17T01:25:35;8;8;5
73305;PMS5003;61530;51.158;0.880;2023-05-17T01:26:37;9;7;4
73305;PMS5003;61530;51.158;0.880;2023-05-17T01:27:42;13;12;6
73305;PMS5003;61530;51.158;0.880;2023-05-17T01:28:46;12;12;6
73305;PMS5003;61530;51.158;0.880;2023-05-17T01:29:49;11;9;6
73305;PMS5003;61530;51.158;0.880;2023-05-17T01:30:53;8;8;5
73305;PMS5003;61530;51.158;0.880;2023-05-17T01:31:58;12;9;6
73305;PMS5003;61530;51.158;0.880;2023-05-17T01:33:01;12;11;6
73305;PMS5003;61530;51.158;0.880;2023-05-17T01:34:05;9;9;6
73305;PMS5003;61530;51.158;0.880;2023-05-17T01:35:10;13;13;8
73305;PMS5003;61530;51.158;0.880;2023-05-17T01:36:14;9;9;5
73305;PMS5003;61530;51.158;0.880;2023-05-17T01:37:17;14;9;6
73305;PMS5003;61530;51.158;0.880;2023-05-17T01:38:21;11;11;5
73305;PMS5003;61530;51.158;0.880;2023-05-17T01:39:26;12;9;6
73305;PMS5003;61530;51.158;0.880;2023-05-17T01:40:30;8;7;5
73305;PMS5003;61530;51.158;0.880;2023-05-17T01:41:35;12;9;6
73305;PMS5003;61530;51.158;0.880;2023-05-17T01:42:37;8;8;7
73305;PMS5003;61530;51.158;0.880;2023-05-17T01:43:41;11;9;6
73305;PMS5003;61530;51.158;0.880;2023-05-17T01:44:47;14;14;7
73305;PMS5003;61530;51.158;0.880;2023-05-17T01:45:52;11;8;5
73305;PMS5003;61530;51.158;0.880;2023-05-17T01:46:54;14;13;9
73305;PMS5003;61530;51.158;0.880;2023-05-17T01:48:01;10;10;5
73305;PMS5003;61530;51.158;0.880;2023-05-17T01:49:04;11;9;5
73305;PMS5003;61530;51.158;0.880;2023-05-17T01:50:06;11;9;6
73305;PMS5003;61530;51.158;0.880;2023-05-17T01:51:09;9;8;5
73305;PMS5003;61530;51.158;0.880;2023-05-17T01:52:18;13;9;6
73305;PMS5003;61530;51.158;0.880;2023-05-17T01:53:19;9;9;7
73305;PMS5003;61530;51.158;0.880;2023-05-17T01:54:22;14;13;6
73305;PMS5003;61530;51.158;0.880;2023-05-17T01:55:25;14;12;6
73305;PMS5003;61530;51.158;0.880;2023-05-17T01:56:32;9;6;4
73305;PMS5003;61530;51.158;0.880;2023-05-17T01:57:34;8;8;5
73305;PMS5003;61530;51.158;0.880;2023-05-17T01:58:42;9;8;5
73305;PMS5003;61530;51.158;0.880;2023-05-17T01:59:41;13;9;6
73305;PMS5003;61530;51.158;0.880;2023-05-17T02:00:45;13;12;6
73305;PMS5003;61530;51.158;0.880;2023-05-17T02:01:50;9;9;6
73305;PMS5003;61530;51.158;0.880;2023-05-17T02:02:53;12;11;7
73305;PMS5003;61530;51.158;0.880;2023-05-17T02:03:57;13;8;5
73305;PMS5003;61530;51.158;0.880;2023-05-17T02:05:00;9;8;5
73305;PMS5003;61530;51.158;0.880;2023-05-17T02:06:06;8;8;5
73305;PMS5003;61530;51.158;0.880;2023-05-17T02:07:09;8;8;6
73305;PMS5003;61530;51.158;0.880;2023-05-17T02:08:13;8;8;5
73305;PMS5003;61530;51.158;0.880;2023-05-17T02:09:16;16;11;7
73305;PMS5003;61530;51.158;0.880;2023-05-17T02:10:22;11;11;7
73305;PMS5003;61530;51.158;0.880;2023-05-17T02:11:25;9;8;6
73305;PMS5003;61530;51.158;0.880;2023-05-17T02:12:29;12;8;5
73305;PMS5003;61530;51.158;0.880;2023-05-17T02:13:32;12;9;4
73305;PMS5003;61530;51.158;0.880;2023-05-17T02:14:38;11;9;4
73305;PMS5003;61530;51.158;0.880;2023-05-17T02:15:41;9;9;5
73305;PMS5003;61530;51.158;0.880;2023-05-17T02:16:45;11;8;5
73305;PMS5003;61530;51.158;0.880;2023-05-17T02:17:48;8;8;6
73305;PMS5003;61530;51.158;0.880;2023-05-17T02:18:54;10;10;7
73305;PMS5003;61530;51.158;0.880;2023-05-17T02:19:57;12;12;7
73305;PMS5003;61530;51.158;0.880;2023-05-17T02:21:01;12;11;6
73305;PMS5003;61530;51.158;0.880;2023-05-17T02:22:04;12;9;6
73305;PMS5003;61530;51.158;0.880;2023-05-17T02:23:10;12;12;5
73305;PMS5003;61530;51.158;0.880;2023-05-17T02:24:13;16;13;6
73305;PMS5003;61530;51.158;0.880;2023-05-17T02:25:17;14;12;6
73305;PMS5003;61530;51.158;0.880;2023-05-17T02:26:20;11;8;5
73305;PMS5003;61530;51.158;0.880;2023-05-17T02:27:26;13;13;6
73305;PMS5003;61530;51.158;0.880;2023-05-17T02:28:29;18;13;6
73305;PMS5003;61530;51.158;0.880;2023-05-17T02:29:33;11;11;5
73305;PMS5003;61530;51.158;0.880;2023-05-17T02:30:36;9;9;5
73305;PMS5003;61530;51.158;0.880;2023-05-17T02:31:42;13;10;6
73305;PMS5003;61530;51.158;0.880;2023-05-17T02:32:45;13;12;6
73305;PMS5003;61530;51.158;0.880;2023-05-17T02:33:49;11;11;6
73305;PMS5003;61530;51.158;0.880;2023-05-17T02:34:52;8;8;6
73305;PMS5003;61530;51.158;0.880;2023-05-17T02:35:58;12;11;6
73305;PMS5003;61530;51.158;0.880;2023-05-17T02:37:02;16;12;8
73305;PMS5003;61530;51.158;0.880;2023-05-17T02:38:05;14;12;8
73305;PMS5003;61530;51.158;0.880;2023-05-17T02:39:08;13;13;7
73305;PMS5003;61530;51.158;0.880;2023-05-17T02:40:14;13;12;6
73305;PMS5003;61530;51.158;0.880;2023-05-17T02:41:17;12;8;6
73305;PMS5003;61530;51.158;0.880;2023-05-17T02:42:21;10;10;5
73305;PMS5003;61530;51.158;0.880;2023-05-17T02:43:24;15;12;7
73305;PMS5003;61530;51.158;0.880;2023-05-17T02:44:30;13;11;6
73305;PMS5003;61530;51.158;0.880;2023-05-17T02:45:33;10;10;5
73305;PMS5003;61530;51.158;0.880;2023-05-17T02:46:37;11;11;6
73305;PMS5003;61530;51.158;0.880;2023-05-17T02:47:40;13;13;7
73305;PMS5003;61530;51.158;0.880;2023-05-17T02:48:46;14;13;7
73305;PMS5003;61530;51.158;0.880;2023-05-17T02:49:49;10;10;6
73305;PMS5003;61530;51.158;0.880;2023-05-17T02:50:53;8;8;5
73305;PMS5003;61530;51.158;0.880;2023-05-17T02:51:56;13;8;5
73305;PMS5003;61530;51.158;0.880;2023-05-17T02:53:02;12;7;5
73305;PMS5003;61530;51.158;0.880;2023-05-17T02:54:05;15;14;5
73305;PMS5003;61530;51.158;0.880;2023-05-17T02:55:09;11;11;7
73305;PMS5003;61530;51.158;0.880;2023-05-17T02:56:12;11;8;5
73305;PMS5003;61530;51.158;0.880;2023-05-17T02:57:18;11;10;5
73305;PMS5003;61530;51.158;0.880;2023-05-17T02:58:21;12;11;5
73305;PMS5003;61530;51.158;0.880;2023-05-17T02:59:25;13;11;5
73305;PMS5003;61530;51.158;0.880;2023-05-17T03:00:28;8;8;6
73305;PMS5003;61530;51.158;0.880;2023-05-17T03:01:34;14;12;8
73305;PMS5003;61530;51.158;0.880;2023-05-17T03:08:25;13;13;6
73305;PMS5003;61530;51.158;0.880;2023-05-17T03:09:33;12;11;6
73305;PMS5003;61530;51.158;0.880;2023-05-17T03:10:37;12;8;6
73305;PMS5003;61530;51.158;0.880;2023-05-17T03:11:40;11;11;7
73305;PMS5003;61530;51.158;0.880;2023-05-17T03:12:46;13;11;6
73305;PMS5003;61530;51.158;0.880;2023-05-17T03:13:49;10;10;6
73305;PMS5003;61530;51.158;0.880;2023-05-17T03:14:53;11;11;7
73305;PMS5003;61530;51.158;0.880;2023-05-17T03:15:56;15;14;7
73305;PMS5003;61530;51.158;0.880;2023-05-17T03:17:02;15;14;7
73305;PMS5003;61530;51.158;0.880;2023-05-17T03:18:05;14;10;6
73305;PMS5003;61530;51.158;0.880;2023-05-17T03:19:09;12;11;5
73305;PMS5003;61530;51.158;0.880;2023-05-17T03:20:12;10;10;6
73305;PMS5003;61530;51.158;0.880;2023-05-17T03:21:18;10;10;6
73305;PMS5003;61530;51.158;0.880;2023-05-17T03:22:21;12;10;6
73305;PMS5003;61530;51.158;0.880;2023-05-17T03:23:25;11;11;5
73305;PMS5003;61530;51.158;0.880;2023-05-17T03:24:28;14;12;7
73305;PMS5003;61530;51.158;0.880;2023-05-17T03:25:34;13;12;7
73305;PMS5003;61530;51.158;0.880;2023-05-17T03:26:37;11;10;5
73305;PMS5003;61530;51.158;0.880;2023-05-17T03:27:41;10;10;7
73305;PMS5003;61530;51.158;0.880;2023-05-17T03:28:44;8;8;6
73305;PMS5003;61530;51.158;0.880;2023-05-17T03:29:50;9;9;6
73305;PMS5003;61530;51.158;0.880;2023-05-17T03:30:53;13;12;7
73305;PMS5003;61530;51.158;0.880;2023-05-17T03:31:57;12;11;6
73305;PMS5003;61530;51.158;0.880;2023-05-17T03:33:00;15;14;6
73305;PMS5003;61530;51.158;0.880;2023-05-17T03:34:06;10;10;5
73305;PMS5003;61530;51.158;0.880;2023-05-17T03:35:09;15;14;7
73305;PMS5003;61530;51.158;0.880;2023-05-17T03:36:13;13;12;7
73305;PMS5003;61530;51.158;0.880;2023-05-17T03:37:16;12;10;6
73305;PMS5003;61530;51.158;0.880;2023-05-17T03:38:22;14;14;7
73305;PMS5003;61530;51.158;0.880;2023-05-17T03:39:25;12;12;7
73305;PMS5003;61530;51.158;0.880;2023-05-17T03:40:28;13;11;7
73305;PMS5003;61530;51.158;0.880;2023-05-17T03:41:32;11;11;6
73305;PMS5003;61530;51.158;0.880;2023-05-17T03:42:38;16;12;6
73305;PMS5003;61530;51.158;0.880;2023-05-17T03:43:41;13;13;6
73305;PMS5003;61530;51.158;0.880;2023-05-17T03:44:45;15;12;8
73305;PMS5003;61530;51.158;0.880;2023-05-17T03:45:48;13;10;7
73305;PMS5003;61530;51.158;0.880;2023-05-17T03:46:54;16;11;6
73305;PMS5003;61530;51.158;0.880;2023-05-17T03:47:57;10;10;7
73305;PMS5003;61530;51.158;0.880;2023-05-17T03:49:00;13;13;8
73305;PMS5003;61530;51.158;0.880;2023-05-17T03:50:05;16;13;8
73305;PMS5003;61530;51.158;0.880;2023-05-17T03:51:10;14;12;7
73305;PMS5003;61530;51.158;0.880;2023-05-17T03:52:13;12;10;5
73305;PMS5003;61530;51.158;0.880;2023-05-17T03:53:17;13;11;7
73305;PMS5003;61530;51.158;0.880;2023-05-17T03:54:20;13;10;5
73305;PMS5003;61530;51.158;0.880;2023-05-17T03:55:26;12;12;7
73305;PMS5003;61530;51.158;0.880;2023-05-17T03:56:29;11;11;6
73305;PMS5003;61530;51.158;0.880;2023-05-17T03:57:33;14;14;6
73305;PMS5003;61530;51.158;0.880;2023-05-17T03:58:36;10;10;6
73305;PMS5003;61530;51.158;0.880;2023-05-17T03:59:42;10;8;5
73305;PMS5003;61530;51.158;0.880;2023-05-17T04:00:45;13;12;7
73305;PMS5003;61530;51.158;0.880;2023-05-17T04:01:49;15;11;7
73305;PMS5003;61530;51.158;0.880;2023-05-17T04:02:52;14;14;7
73305;PMS5003;61530;51.158;0.880;2023-05-17T04:03:58;12;12;7
73305;PMS5003;61530;51.158;0.880;2023-05-17T04:05:01;14;13;7
73305;PMS5003;61530;51.158;0.880;2023-05-17T04:06:05;11;10;6
73305;PMS5003;61530;51.158;0.880;2023-05-17T04:07:08;14;12;6
73305;PMS5003;61530;51.158;0.880;2023-05-17T04:08:14;16;14;10
73305;PMS5003;61530;51.158;0.880;2023-05-17T04:09:17;15;14;7
73305;PMS5003;61530;51.158;0.880;2023-05-17T04:10:21;15;13;7
73305;PMS5003;61530;51.158;0.880;2023-05-17T04:11:24;15;14;6
73305;PMS5003;61530;51.158;0.880;2023-05-17T04:12:30;15;12;7
73305;PMS5003;61530;51.158;0.880;2023-05-17T04:13:33;17;14;8
73305;PMS5003;61530;51.158;0.880;2023-05-17T04:14:37;17;15;8
73305;PMS5003;61530;51.158;0.880;2023-05-17T04:15:40;14;14;8
73305;PMS5003;61530;51.158;0.880;2023-05-17T04:16:46;14;12;8
73305;PMS5003;61530;51.158;0.880;2023-05-17T04:17:49;15;14;8
73305;PMS5003;61530;51.158;0.880;2023-05-17T04:18:53;19;13;8
73305;PMS5003;61530;51.158;0.880;2023-05-17T04:19:56;18;16;8
73305;PMS5003;61530;51.158;0.880;2023-05-17T04:21:02;24;20;12
73305;PMS5003;61530;51.158;0.880;2023-05-17T04:22:05;15;15;9
73305;PMS5003;61530;51.158;0.880;2023-05-17T04:23:09;15;14;11
73305;PMS5003;61530;51.158;0.880;2023-05-17T04:24:12;17;14;11
73305;PMS5003;61530;51.158;0.880;2023-05-17T04:25:18;16;16;12
73305;PMS5003;61530;51.158;0.880;2023-05-17T04:26:21;24;19;12
73305;PMS5003;61530;51.158;0.880;2023-05-17T04:27:25;17;16;10
73305;PMS5003;61530;51.158;0.880;2023-05-17T04:28:28;18;15;10
73305;PMS5003;61530;51.158;0.880;2023-05-17T04:29:34;17;16;7
73305;PMS5003;61530;51.158;0.880;2023-05-17T04:30:40;18;17;13
73305;PMS5003;61530;51.158;0.880;2023-05-17T04:31:40;16;14;9
73305;PMS5003;61530;51.158;0.880;2023-05-17T04:32:44;16;15;9
73305;PMS5003;61530;51.158;0.880;2023-05-17T04:33:50;18;17;13
73305;PMS5003;61530;51.158;0.880;2023-05-17T04:34:53;17;16;11
73305;PMS5003;61530;51.158;0.880;2023-05-17T04:35:57;18;18;12
73305;PMS5003;61530;51.158;0.880;2023-05-17T04:37:00;16;15;9
73305;PMS5003;61530;51.158;0.880;2023-05-17T04:38:06;18;16;11
73305;PMS5003;61530;51.158;0.880;2023-05-17T04:39:09;18;16;12
73305;PMS5003;61530;51.158;0.880;2023-05-17T04:40:13;21;21;11
73305;PMS5003;61530;51.158;0.880;2023-05-17T04:41:16;15;15;11
73305;PMS5003;61530;51.158;0.880;2023-05-17T04:42:22;16;16;11
73305;PMS5003;61530;51.158;0.880;2023-05-17T04:43:25;16;16;12
73305;PMS5003;61530;51.158;0.880;2023-05-17T04:44:29;19;17;11
73305;PMS5003;61530;51.158;0.880;2023-05-17T04:45:32;23;22;11
73305;PMS5003;61530;51.158;0.880;2023-05-17T04:46:38;22;22;12
73305;PMS5003;61530;51.158;0.880;2023-05-17T04:47:41;26;23;12
73305;PMS5003;61530;51.158;0.880;2023-05-17T04:48:45;16;16;9
73305;PMS5003;61530;51.158;0.880;2023-05-17T04:49:48;18;16;11
73305;PMS5003;61530;51.158;0.880;2023-05-17T04:50:54;18;15;11
73305;PMS5003;61530;51.158;0.880;2023-05-17T04:51:57;20;20;13
73305;PMS5003;61530;51.158;0.880;2023-05-17T04:53:01;23;23;11
73305;PMS5003;61530;51.158;0.880;2023-05-17T04:54:04;17;17;12
73305;PMS5003;61530;51.158;0.880;2023-05-17T04:55:10;23;21;11
73305;PMS5003;61530;51.158;0.880;2023-05-17T04:56:13;16;16;11
73305;PMS5003;61530;51.158;0.880;2023-05-17T04:57:17;17;15;9
73305;PMS5003;61530;51.158;0.880;2023-05-17T04:58:20;18;17;11
73305;PMS5003;61530;51.158;0.880;2023-05-17T04:59:26;21;16;11
73305;PMS5003;61530;51.158;0.880;2023-05-17T05:00:29;21;21;10
73305;PMS5003;61530;51.158;0.880;2023-05-17T05:01:33;19;17;12
73305;PMS5003;61530;51.158;0.880;2023-05-17T05:02:36;21;17;12
73305;PMS5003;61530;51.158;0.880;2023-05-17T05:03:42;16;16;9
73305;PMS5003;61530;51.158;0.880;2023-05-17T05:04:45;27;21;12
73305;PMS5003;61530;51.158;0.880;2023-05-17T05:05:49;22;21;11
73305;PMS5003;61530;51.158;0.880;2023-05-17T05:06:52;30;27;17
73305;PMS5003;61530;51.158;0.880;2023-05-17T05:07:58;25;23;12
73305;PMS5003;61530;51.158;0.880;2023-05-17T05:09:01;24;22;12
73305;PMS5003;61530;51.158;0.880;2023-05-17T05:10:05;28;26;13
73305;PMS5003;61530;51.158;0.880;2023-05-17T05:11:08;27;25;12
73305;PMS5003;61530;51.158;0.880;2023-05-17T05:12:14;17;16;11
73305;PMS5003;61530;51.158;0.880;2023-05-17T05:13:17;17;16;9
73305;PMS5003;61530;51.158;0.880;2023-05-17T05:14:20;19;18;11
73305;PMS5003;61530;51.158;0.880;2023-05-17T05:15:24;19;17;12
73305;PMS5003;61530;51.158;0.880;2023-05-17T05:16:30;16;16;11
73305;PMS5003;61530;51.158;0.880;2023-05-17T05:17:33;28;26;12
73305;PMS5003;61530;51.158;0.880;2023-05-17T05:18:37;16;15;9
73305;PMS5003;61530;51.158;0.880;2023-05-17T05:19:40;17;16;12
73305;PMS5003;61530;51.158;0.880;2023-05-17T05:20:47;17;17;10
73305;PMS5003;61530;51.158;0.880;2023-05-17T05:21:49;19;18;11
73305;PMS5003;61530;51.158;0.880;2023-05-17T05:22:52;16;14;8
73305;PMS5003;61530;51.158;0.880;2023-05-17T05:23:56;20;17;12
73305;PMS5003;61530;51.158;0.880;2023-05-17T05:25:03;19;16;10
73305;PMS5003;61530;51.158;0.880;2023-05-17T05:26:05;18;17;9
73305;PMS5003;61530;51.158;0.880;2023-05-17T05:27:09;21;16;10
73305;PMS5003;61530;51.158;0.880;2023-05-17T05:28:12;18;17;9
73305;PMS5003;61530;51.158;0.880;2023-05-17T05:29:18;19;18;12
73305;PMS5003;61530;51.158;0.880;2023-05-17T05:30:21;18;16;9
73305;PMS5003;61530;51.158;0.880;2023-05-17T05:31:24;19;15;9
73305;PMS5003;61530;51.158;0.880;2023-05-17T05:32:28;20;19;10
73305;PMS5003;61530;51.158;0.880;2023-05-17T05:33:34;28;22;13
73305;PMS5003;61530;51.158;0.880;2023-05-17T05:34:37;16;16;9
73305;PMS5003;61530;51.158;0.880;2023-05-17T05:35:41;20;20;10
73305;PMS5003;61530;51.158;0.880;2023-05-17T05:36:44;16;16;10
73305;PMS5003;61530;51.158;0.880;2023-05-17T05:37:50;21;18;8
73305;PMS5003;61530;51.158;0.880;2023-05-17T05:38:53;20;16;9
73305;PMS5003;61530;51.158;0.880;2023-05-17T05:39:56;17;17;10
73305;PMS5003;61530;51.158;0.880;2023-05-17T05:41:00;18;17;9
73305;PMS5003;61530;51.158;0.880;2023-05-17T05:42:06;19;18;12
73305;PMS5003;61530;51.158;0.880;2023-05-17T05:43:09;16;16;10
73305;PMS5003;61530;51.158;0.880;2023-05-17T05:44:13;21;18;10
73305;PMS5003;61530;51.158;0.880;2023-05-17T05:45:16;17;16;10
73305;PMS5003;61530;51.158;0.880;2023-05-17T05:46:22;15;15;9
73305;PMS5003;61530;51.158;0.880;2023-05-17T05:47:25;20;20;9
73305;PMS5003;61530;51.158;0.880;2023-05-17T05:48:29;17;16;10
73305;PMS5003;61530;51.158;0.880;2023-05-17T05:49:32;19;18;9
73305;PMS5003;61530;51.158;0.880;2023-05-17T05:50:38;20;20;9
73305;PMS5003;61530;51.158;0.880;2023-05-17T05:51:41;17;15;8
73305;PMS5003;61530;51.158;0.880;2023-05-17T05:52:45;15;15;10
73305;PMS5003;61530;51.158;0.880;2023-05-17T05:53:48;16;15;9
73305;PMS5003;61530;51.158;0.880;2023-05-17T05:54:54;17;17;10
73305;PMS5003;61530;51.158;0.880;2023-05-17T05:55:57;21;16;10
73305;PMS5003;61530;51.158;0.880;2023-05-17T05:57:00;15;15;8
73305;PMS5003;61530;51.158;0.880;2023-05-17T05:58:04;19;14;8
73305;PMS5003;61530;51.158;0.880;2023-05-17T05:59:10;20;16;10
73305;PMS5003;61530;51.158;0.880;2023-05-17T06:00:14;17;16;9
73305;PMS5003;61530;51.158;0.880;2023-05-17T06:01:17;14;14;8
73305;PMS5003;61530;51.158;0.880;2023-05-17T06:02:21;20;20;9
73305;PMS5003;61530;51.158;0.880;2023-05-17T06:03:26;18;16;9
73305;PMS5003;61530;51.158;0.880;2023-05-17T06:04:29;21;17;9
73305;PMS5003;61530;51.158;0.880;2023-05-17T06:05:32;18;17;9
73305;PMS5003;61530;51.158;0.880;2023-05-17T06:06:36;28;20;11
73305;PMS5003;61530;51.158;0.880;2023-05-17T06:07:42;21;19;10
73305;PMS5003;61530;51.158;0.880;2023-05-17T06:08:45;16;15;9
73305;PMS5003;61530;51.158;0.880;2023-05-17T06:09:49;19;19;11
73305;PMS5003;61530;51.158;0.880;2023-05-17T06:10:52;20;16;10
73305;PMS5003;61530;51.158;0.880;2023-05-17T06:11:58;22;18;8
73305;PMS5003;61530;51.158;0.880;2023-05-17T06:13:01;15;15;9
73305;PMS5003;61530;51.158;0.880;2023-05-17T06:14:05;19;17;9
73305;PMS5003;61530;51.158;0.880;2023-05-17T06:15:08;17;17;10
73305;PMS5003;61530;51.158;0.880;2023-05-17T06:16:14;19;17;10
73305;PMS5003;61530;51.158;0.880;2023-05-17T06:17:17;22;17;10
73305;PMS5003;61530;51.158;0.880;2023-05-17T06:18:21;21;17;10
73305;PMS5003;61530;51.158;0.880;2023-05-17T06:19:24;21;16;10
73305;PMS5003;61530;51.158;0.880;2023-05-17T06:20:30;19;17;10
73305;PMS5003;61530;51.158;0.880;2023-05-17T06:21:33;22;21;10
73305;PMS5003;61530;51.158;0.880;2023-05-17T06:22:36;21;18;12
73305;PMS5003;61530;51.158;0.880;2023-05-17T06:23:40;13;13;9
73305;PMS5003;61530;51.158;0.880;2023-05-17T06:24:46;21;19;11
73305;PMS5003;61530;51.158;0.880;2023-05-17T06:25:49;20;13;8
73305;PMS5003;61530;51.158;0.880;2023-05-17T06:26:53;18;14;8
73305;PMS5003;61530;51.158;0.880;2023-05-17T06:27:56;19;18;9
73305;PMS5003;61530;51.158;0.880;2023-05-17T06:29:02;34;30;23
73305;PMS5003;61530;51.158;0.880;2023-05-17T06:30:06;25;25;20
73305;PMS5003;61530;51.158;0.880;2023-05-17T06:31:08;28;21;13
73305;PMS5003;61530;51.158;0.880;2023-05-17T06:32:12;26;25;17
73305;PMS5003;61530;51.158;0.880;2023-05-17T06:33:18;29;27;17
73305;PMS5003;61530;51.158;0.880;2023-05-17T06:34:21;46;41;36
73305;PMS5003;61530;51.158;0.880;2023-05-17T06:35:25;27;24;19
73305;PMS5003;61530;51.158;0.880;2023-05-17T06:36:28;32;32;27
73305;PMS5003;61530;51.158;0.880;2023-05-17T06:37:34;38;32;28
73305;PMS5003;61530;51.158;0.880;2023-05-17T06:38:37;35;32;28
73305;PMS5003;61530;51.158;0.880;2023-05-17T06:39:40;34;31;25
73305;PMS5003;61530;51.158;0.880;2023-05-17T06:40:44;35;29;25
73305;PMS5003;61530;51.158;0.880;2023-05-17T06:41:50;30;30;25
73305;PMS5003;61530;51.158;0.880;2023-05-17T06:42:53;26;26;21
73305;PMS5003;61530;51.158;0.880;2023-05-17T06:43:57;21;19;11
73305;PMS5003;61530;51.158;0.880;2023-05-17T06:45:00;21;20;13
73305;PMS5003;61530;51.158;0.880;2023-05-17T06:46:06;21;16;10
73305;PMS5003;61530;51.158;0.880;2023-05-17T06:47:09;15;14;9
73305;PMS5003;61530;51.158;0.880;2023-05-17T06:48:12;13;13;9
73305;PMS5003;61530;51.158;0.880;2023-05-17T06:49:16;16;15;8
73305;PMS5003;61530;51.158;0.880;2023-05-17T06:50:22;14;14;8
73305;PMS5003;61530;51.158;0.880;2023-05-17T06:51:25;21;13;9
73305;PMS5003;61530;51.158;0.880;2023-05-17T06:52:29;14;14;8
73305;PMS5003;61530;51.158;0.880;2023-05-17T06:53:32;17;13;8
73305;PMS5003;61530;51.158;0.880;2023-05-17T06:54:38;18;17;9
73305;PMS5003;61530;51.158;0.880;2023-05-17T06:55:41;16;12;9
73305;PMS5003;61530;51.158;0.880;2023-05-17T06:56:45;16;12;8
73305;PMS5003;61530;51.158;0.880;2023-05-17T06:57:48;15;14;8
73305;PMS5003;61530;51.158;0.880;2023-05-17T06:58:54;14;12;8
73305;PMS5003;61530;51.158;0.880;2023-05-17T06:59:57;12;11;7
73305;PMS5003;61530;51.158;0.880;2023-05-17T07:01:01;14;14;8
73305;PMS5003;61530;51.158;0.880;2023-05-17T07:02:04;16;14;6
73305;PMS5003;61530;51.158;0.880;2023-05-17T07:03:10;20;14;8
73305;PMS5003;61530;51.158;0.880;2023-05-17T07:04:13;13;12;6